Heiseimaru No.18 — JD2423 — position and weather

sailwx.info

Track history (hours):
 
Tides and Currents Weather Stations Pressure Air Temp Water Temp Dewpoint Dewpoint Depression Visibility Wind Speed Wind Dir Waves Ship Positions

Heiseimaru No.18

Last reported at 2017-Nov-17 04:24 UTC. Time now 2017-Nov-18 02:56 UTC.
Position N 35°33' E 139°55'.

Length 75 m; draft 5 m.

Type: Cargo ship. MMSI: 431000193.

Date/timePositionNaut miles runAvg speedWind from/ knotsBaromVisibWave heightAir tempDewpointWater temp
2017-Nov-17 04:24N 35°33' E 139°55'511.5
2017-Nov-17 04:00N 35°30' E 139°51'611.5
2017-Nov-17 03:30N 35°27' E 139°45'510.4
2017-Nov-17 03:00N 35°23' E 139°40'2 3.0
2017-Nov-17 02:30N 35°23' E 139°38'0 0.0
2017-Nov-17 02:00N 35°23' E 139°38'0 0.0
2017-Nov-17 01:30N 35°23' E 139°38'0 0.0
2017-Nov-17 01:00N 35°23' E 139°38'0 0.0
2017-Nov-17 00:30N 35°23' E 139°38'0 0.0
2017-Nov-17 00:00N 35°23' E 139°38'0 0.0
2017-Nov-16 23:30N 35°23' E 139°38'0 0.0
2017-Nov-16 23:00N 35°23' E 139°38'1 2.1
2017-Nov-16 22:30N 35°24' E 139°40'0 0.8
2017-Nov-16 22:00N 35°23' E 139°40'0 0.0
2017-Nov-16 21:30N 35°23' E 139°40'0 0.0
2017-Nov-16 21:00N 35°23' E 139°40'0 0.0
2017-Nov-16 20:30N 35°23' E 139°40'0 0.0
2017-Nov-16 20:00N 35°23' E 139°40'0 0.0
2017-Nov-16 19:30N 35°23' E 139°40'0 0.0
2017-Nov-16 19:00N 35°23' E 139°40'0 0.0
2017-Nov-16 18:30N 35°23' E 139°40'0 0.4
2017-Nov-16 18:00N 35°23' E 139°40'510.4
2017-Nov-16 17:30N 35°19' E 139°44'611.0
2017-Nov-16 17:00N 35°14' E 139°47'510.2
2017-Nov-16 16:30N 35°09' E 139°46'510.0
2017-Nov-16 16:00N 35°04' E 139°43'510.0
2017-Nov-16 15:29N 35°00' E 139°39'7 9.9
2017-Nov-16 14:50N 34°57' E 139°32'228 6.5
2017-Nov-15 03:32N 34°05' E 135°03'111.4
2017-Nov-15 03:28N 34°06' E 135°03'511.2
2017-Nov-15 03:00N 34°11' E 135°03'611.8
2017-Nov-15 02:30N 34°17' E 135°04'1311.3
2017-Nov-15 01:23N 34°28' E 135°12'410.9
2017-Nov-15 00:59N 34°31' E 135°16'510.8
2017-Nov-15 00:29N 34°35' E 135°20'4 8.7
2017-Nov-15 00:00N 34°36' E 135°25'1 0.1
2017-Nov-14 00:59N 34°35' E 135°27'5 9.8
2017-Nov-14 00:30N 34°35' E 135°21'611.4
2017-Nov-14 00:00N 34°31' E 135°16'611.5
2017-Nov-13 23:30N 34°28' E 135°10'1210.7
2017-Nov-13 22:20N 34°17' E 135°04'411.8
2017-Nov-13 22:00N 34°13' E 135°03'  
2017-Nov-09 23:55N 34°06' E 135°02'410.6
2017-Nov-09 23:30N 34°10' E 135°02'510.3
2017-Nov-09 23:00N 34°16' E 135°03'1510.8
2017-Nov-09 21:36N 34°28' E 135°12'111.1
2017-Nov-09 21:29N 34°29' E 135°14'511.0
2017-Nov-09 21:00N 34°33' E 135°18'510.7
2017-Nov-09 20:30N 34°36' E 135°23'4 7.7
2017-Nov-09 20:00N 34°34' E 135°27'0 0.0
2017-Nov-09 15:28N 34°34' E 135°27'0 0.0
2017-Nov-09 14:53N 34°34' E 135°27'0 0.0
2017-Nov-09 14:29N 34°34' E 135°27'0 0.0
2017-Nov-09 12:53N 34°34' E 135°27'0 0.0
2017-Nov-09 12:30N 34°34' E 135°27'0 0.0
2017-Nov-09 10:28N 34°34' E 135°27'1 1.2
2017-Nov-09 10:00N 34°35' E 135°27'0 0.0
2017-Nov-09 09:30N 34°35' E 135°27'0 0.0
2017-Nov-09 08:56N 34°35' E 135°27'1 3.0
2017-Nov-09 08:30N 34°35' E 135°26'4 7.1
2017-Nov-09 08:00N 34°39' E 135°25'1 2.4
2017-Nov-09 07:29N 34°40' E 135°26'0 0.0
2017-Nov-09 06:59N 34°40' E 135°26'0 0.0
2017-Nov-09 06:30N 34°40' E 135°26'0 0.0
2017-Nov-09 06:00N 34°40' E 135°26'0 0.0
2017-Nov-09 05:30N 34°40' E 135°26'2 3.1
2017-Nov-09 05:00N 34°39' E 135°24'2 4.6
2017-Nov-09 04:30N 34°37' E 135°22'0 0.0
2017-Nov-09 04:00N 34°37' E 135°22'0 0.0
2017-Nov-09 03:30N 34°37' E 135°22'0 0.0
2017-Nov-09 03:00N 34°37' E 135°22'0 0.0
2017-Nov-09 02:28N 34°37' E 135°22'0 0.0
2017-Nov-09 02:00N 34°37' E 135°22'0 0.0
2017-Nov-09 01:30N 34°37' E 135°22'0 0.0
2017-Nov-09 01:00N 34°37' E 135°22'0 0.0
2017-Nov-09 00:30N 34°37' E 135°22'0 0.4
2017-Nov-09 00:00N 34°37' E 135°22'510.0
2017-Nov-08 23:30N 34°36' E 135°16'510.5
2017-Nov-08 23:00N 34°35' E 135°10'611.6
2017-Nov-08 22:30N 34°36' E 135°03'4 0.1
2017-Nov-07 11:11N 34°37' E 134°58'211.7
2017-Nov-07 10:58N 34°37' E 135°01'511.4
2017-Nov-07 10:30N 34°36' E 135°07'611.9
2017-Nov-07 10:00N 34°37' E 135°14'611.5
2017-Nov-07 09:30N 34°39' E 135°21'4 8.9
2017-Nov-07 09:00N 34°39' E 135°27'1 0.4
2017-Nov-07 06:44N 34°39' E 135°28'  
Track history (hours):
 
Tides and Currents Weather Stations Pressure Air Temp Water Temp Dewpoint Dewpoint Depression Visibility Wind Speed Wind Dir Waves Ship Positions

Heiseimaru No.18

Last reported at 2017-Nov-17 04:24 UTC. Time now 2017-Nov-18 02:56 UTC.
Position N 35°33' E 139°55'.

Length 75 m; draft 5 m.

Type: Cargo ship. MMSI: 431000193.

Date/timePositionNaut miles runAvg speedWind from/ knotsBaromVisibWave heightAir tempDewpointWater temp
2017-Nov-17 04:24N 35°33' E 139°55'511.5
2017-Nov-17 04:00N 35°30' E 139°51'611.5
2017-Nov-17 03:30N 35°27' E 139°45'510.4
2017-Nov-17 03:00N 35°23' E 139°40'2 3.0
2017-Nov-17 02:30N 35°23' E 139°38'0 0.0
2017-Nov-17 02:00N 35°23' E 139°38'0 0.0
2017-Nov-17 01:30N 35°23' E 139°38'0 0.0
2017-Nov-17 01:00N 35°23' E 139°38'0 0.0
2017-Nov-17 00:30N 35°23' E 139°38'0 0.0
2017-Nov-17 00:00N 35°23' E 139°38'0 0.0
2017-Nov-16 23:30N 35°23' E 139°38'0 0.0
2017-Nov-16 23:00N 35°23' E 139°38'1 2.1
2017-Nov-16 22:30N 35°24' E 139°40'0 0.8
2017-Nov-16 22:00N 35°23' E 139°40'0 0.0
2017-Nov-16 21:30N 35°23' E 139°40'0 0.0
2017-Nov-16 21:00N 35°23' E 139°40'0 0.0
2017-Nov-16 20:30N 35°23' E 139°40'0 0.0
2017-Nov-16 20:00N 35°23' E 139°40'0 0.0
2017-Nov-16 19:30N 35°23' E 139°40'0 0.0
2017-Nov-16 19:00N 35°23' E 139°40'0 0.0
2017-Nov-16 18:30N 35°23' E 139°40'0 0.4
2017-Nov-16 18:00N 35°23' E 139°40'510.4
2017-Nov-16 17:30N 35°19' E 139°44'611.0
2017-Nov-16 17:00N 35°14' E 139°47'510.2
2017-Nov-16 16:30N 35°09' E 139°46'510.0
2017-Nov-16 16:00N 35°04' E 139°43'510.0
2017-Nov-16 15:29N 35°00' E 139°39'7 9.9
2017-Nov-16 14:50N 34°57' E 139°32'228 6.5
2017-Nov-15 03:32N 34°05' E 135°03'111.4
2017-Nov-15 03:28N 34°06' E 135°03'511.2
2017-Nov-15 03:00N 34°11' E 135°03'611.8
2017-Nov-15 02:30N 34°17' E 135°04'1311.3
2017-Nov-15 01:23N 34°28' E 135°12'410.9
2017-Nov-15 00:59N 34°31' E 135°16'510.8
2017-Nov-15 00:29N 34°35' E 135°20'4 8.7
2017-Nov-15 00:00N 34°36' E 135°25'1 0.1
2017-Nov-14 00:59N 34°35' E 135°27'5 9.8
2017-Nov-14 00:30N 34°35' E 135°21'611.4
2017-Nov-14 00:00N 34°31' E 135°16'611.5
2017-Nov-13 23:30N 34°28' E 135°10'1210.7
2017-Nov-13 22:20N 34°17' E 135°04'411.8
2017-Nov-13 22:00N 34°13' E 135°03'  
2017-Nov-09 23:55N 34°06' E 135°02'410.6
2017-Nov-09 23:30N 34°10' E 135°02'510.3
2017-Nov-09 23:00N 34°16' E 135°03'1510.8
2017-Nov-09 21:36N 34°28' E 135°12'111.1
2017-Nov-09 21:29N 34°29' E 135°14'511.0
2017-Nov-09 21:00N 34°33' E 135°18'510.7
2017-Nov-09 20:30N 34°36' E 135°23'4 7.7
2017-Nov-09 20:00N 34°34' E 135°27'0 0.0
2017-Nov-09 15:28N 34°34' E 135°27'0 0.0
2017-Nov-09 14:53N 34°34' E 135°27'0 0.0
2017-Nov-09 14:29N 34°34' E 135°27'0 0.0
2017-Nov-09 12:53N 34°34' E 135°27'0 0.0
2017-Nov-09 12:30N 34°34' E 135°27'0 0.0
2017-Nov-09 10:28N 34°34' E 135°27'1 1.2
2017-Nov-09 10:00N 34°35' E 135°27'0 0.0
2017-Nov-09 09:30N 34°35' E 135°27'0 0.0
2017-Nov-09 08:56N 34°35' E 135°27'1 3.0
2017-Nov-09 08:30N 34°35' E 135°26'4 7.1
2017-Nov-09 08:00N 34°39' E 135°25'1 2.4
2017-Nov-09 07:29N 34°40' E 135°26'0 0.0
2017-Nov-09 06:59N 34°40' E 135°26'0 0.0
2017-Nov-09 06:30N 34°40' E 135°26'0 0.0
2017-Nov-09 06:00N 34°40' E 135°26'0 0.0
2017-Nov-09 05:30N 34°40' E 135°26'2 3.1
2017-Nov-09 05:00N 34°39' E 135°24'2 4.6
2017-Nov-09 04:30N 34°37' E 135°22'0 0.0
2017-Nov-09 04:00N 34°37' E 135°22'0 0.0
2017-Nov-09 03:30N 34°37' E 135°22'0 0.0
2017-Nov-09 03:00N 34°37' E 135°22'0 0.0
2017-Nov-09 02:28N 34°37' E 135°22'0 0.0
2017-Nov-09 02:00N 34°37' E 135°22'0 0.0
2017-Nov-09 01:30N 34°37' E 135°22'0 0.0
2017-Nov-09 01:00N 34°37' E 135°22'0 0.0
2017-Nov-09 00:30N 34°37' E 135°22'0 0.4
2017-Nov-09 00:00N 34°37' E 135°22'510.0
2017-Nov-08 23:30N 34°36' E 135°16'510.5
2017-Nov-08 23:00N 34°35' E 135°10'611.6
2017-Nov-08 22:30N 34°36' E 135°03'4 0.1
2017-Nov-07 11:11N 34°37' E 134°58'211.7
2017-Nov-07 10:58N 34°37' E 135°01'511.4
2017-Nov-07 10:30N 34°36' E 135°07'611.9
2017-Nov-07 10:00N 34°37' E 135°14'611.5
2017-Nov-07 09:30N 34°39' E 135°21'4 8.9
2017-Nov-07 09:00N 34°39' E 135°27'1 0.4
2017-Nov-07 06:44N 34°39' E 135°28'  

Dump ship's entire track history